Winston Salem, NC (27110)

4:56 AM EDT on July 03, 2015 (GMT -0400)
UNC School of the Arts | | Change Station
CLOSE
Current Station
Personal Weather Station
Location: Winston-Salem, NC
Elevation: 879 ft
Nearby Weather Stations

Elev 879 ft 36.08 °N, 80.23 °W | Updated 1 minute ago

Overcast
Overcast
69.8 °F
Feels Like 69.8 °F
N
2.0
Wind Variable Wind from NNE
Gusts 4.0 mph

Today
High -- | Low -- °F
--% Chance of Precip.
Yesterday
High -- | Low -- °F
Precip. -- in
6:08 AM 8:41 PM
Full, 98% visible
Pressure 29.92 in
Visibility 4.0 miles
Clouds Few 200 ft
Mostly Cloudy 1800 ft
Overcast 2400 ft
Dew Point 68 °F
Humidity 93%
Rainfall 0.00 in
Snow Depth Not available.
UV 0.0 out of 12
Pollen .50 out of 12
Air Quality Not available.
Flu Activity Not available.
METAR KINT 030854Z AUTO 03003KT 4SM BR FEW002 BKN018 OVC024 20/19 A2995 RMK AO2 SLP132 T02000194 55000

More Conditions Fewer Conditions

Pressure 29.92 in
Visibility 4.0 miles
Clouds Few 200 ft
Mostly Cloudy 1800 ft
Overcast 2400 ft
Dew Point 68 °F
Humidity 93%
Rainfall 0.00 in
Snow Depth Not available.
UV 0.0 out of 12
Pollen .50 out of 12
Air Quality Not available.
Flu Activity Not available.
METAR KINT 030854Z AUTO 03003KT 4SM BR FEW002 BKN018 OVC024 20/19 A2995 RMK AO2 SLP132 T02000194 55000

More Conditions Fewer Conditions

10-Day Weather Forecast

×

Almanac

Astronomy

Jul. 03, 2015 Rise Set
Actual Time
Civil Twilight
Nautical Twilight
Astronomical Twilight
Moon
Length of Visible Light
Length of Day
Tomorrow will be .
, % of the Moon is Illuminated

Today's Extremes

State Highs State Lows

Community

WunderPhotos

Upload Photos

1,834,647 photos uploaded!

WunderBlogs® & News

Nearby

Air Quality

  Air Quality AQ Index Pollutant
Not available.

Snow Depth

Station Depth Elevation

Earthquake Activity

City Distance Mag. Time & Date
Minimum magnitude displayed is 2.5.

Coastal Water Temperatures

Place Temperature

Stations

Nearby Weather Stations

Station Location Temp. Windchill Dew Point Humidity Wind Precip. Elev Updated Type